Time;durP1;ratioP1;P1;durP2;ratioP2;P2;SDS_P1;SDS_P2;PMS_P1;PMS_P2;Temp;Humidity;BMP_temperature;BMP_pressure;BME280_temperature;BME280_humidity;BME280_pressure;Samples;Min_cycle;Max_cycle;Signal;HPM_P1;HPM_P2
2022/03/28 00:02:13;;;;;;;25.83;10.10;;;;;;;;;;5091535;28;20076;-69
2022/03/28 00:04:43;;;;;;;24.35;10.00;;;;;;;;;;5091476;28;20044;-69
2022/03/28 00:07:11;;;;;;;20.65;9.27;;;;;;;;;;5091757;28;20459;-69
2022/03/28 00:09:39;;;;;;;29.20;9.77;;;;;;;;;;5092684;28;20140;-69
2022/03/28 00:12:08;;;;;;;24.65;9.55;;;;;;;;;;5091245;28;20495;-69
2022/03/28 00:14:36;;;;;;;20.60;8.82;;;;;;;;;;5092715;28;20135;-69
2022/03/28 00:17:05;;;;;;;25.52;10.10;;;;;;;;;;5088096;28;20078;-69
2022/03/28 00:19:33;;;;;;;25.67;9.85;;;;;;;;;;5092892;28;20131;-68
2022/03/28 00:22:03;;;;;;;21.60;9.35;;;;;;;;;;5089063;28;20536;-69
2022/03/28 00:24:32;;;;;;;21.60;9.30;;;;;;;;;;5081323;28;20071;-69
2022/03/28 00:27:01;;;;;;;22.75;10.05;;;;;;;;;;5093670;28;20051;-69
2022/03/28 00:29:29;;;;;;;20.08;8.85;;;;;;;;;;5091429;28;20062;-69
2022/03/28 00:31:57;;;;;;;24.42;10.10;;;;;;;;;;5090054;28;20047;-69
2022/03/28 00:34:26;;;;;;;25.67;9.32;;;;;;;;;;5083519;28;20051;-69
2022/03/28 00:36:54;;;;;;;24.67;9.77;;;;;;;;;;5092297;28;20109;-69
2022/03/28 00:39:23;;;;;;;22.60;9.90;;;;;;;;;;5091362;28;20131;-69
2022/03/28 00:41:52;;;;;;;26.85;9.45;;;;;;;;;;5084388;28;20394;-69
2022/03/28 00:44:21;;;;;;;24.77;9.25;;;;;;;;;;5092031;28;20043;-69
2022/03/28 00:46:50;;;;;;;22.52;8.85;;;;;;;;;;5090790;28;20044;-69
2022/03/28 00:49:18;;;;;;;23.92;10.07;;;;;;;;;;5091575;28;20052;-69
2022/03/28 00:51:47;;;;;;;25.75;9.35;;;;;;;;;;5088475;28;20087;-69
2022/03/28 00:54:15;;;;;;;25.30;9.50;;;;;;;;;;5091315;28;20046;-69
2022/03/28 00:56:47;;;;;;;20.35;8.35;;;;;;;;;;5089805;28;20131;-69
2022/03/28 00:59:15;;;;;;;19.35;8.52;;;;;;;;;;5089756;28;20127;-69
2022/03/28 01:01:44;;;;;;;20.55;8.32;;;;;;;;;;5090870;28;20071;-69
2022/03/28 01:04:13;;;;;;;27.88;8.68;;;;;;;;;;5091696;28;20052;-69
2022/03/28 01:06:41;;;;;;;32.58;9.32;;;;;;;;;;5095391;28;20126;-69
2022/03/28 01:09:09;;;;;;;21.00;9.73;;;;;;;;;;5086832;28;20071;-69
2022/03/28 01:11:38;;;;;;;17.45;8.43;;;;;;;;;;5090510;28;20131;-69
2022/03/28 01:14:07;;;;;;;20.73;8.70;;;;;;;;;;5090800;28;20470;-69
2022/03/28 01:18:05;;;;;;;21.90;9.13;;;;;;;;;;5091738;28;20087;-69
2022/03/28 01:19:24;;;;;;;23.30;9.20;;;;;;;;;;5087756;28;20040;-68
2022/03/28 01:21:54;;;;;;;23.58;9.65;;;;;;;;;;5094036;28;20101;-69
2022/03/28 01:24:22;;;;;;;23.23;8.95;;;;;;;;;;5083259;28;20056;-69
2022/03/28 01:26:51;;;;;;;21.75;8.65;;;;;;;;;;5090418;28;20066;-68
2022/03/28 01:29:20;;;;;;;18.50;8.43;;;;;;;;;;5087811;28;20054;-69
2022/03/28 01:31:48;;;;;;;23.23;8.85;;;;;;;;;;5090734;28;20056;-69
2022/03/28 01:34:17;;;;;;;15.43;8.18;;;;;;;;;;5084892;28;20044;-69
2022/03/28 01:36:47;;;;;;;20.40;8.15;;;;;;;;;;5088592;28;20456;-69
2022/03/28 01:39:17;;;;;;;20.52;8.82;;;;;;;;;;5087720;28;20473;-69
2022/03/28 01:41:46;;;;;;;18.90;7.57;;;;;;;;;;5091488;28;20068;-69
2022/03/28 01:44:14;;;;;;;22.00;8.40;;;;;;;;;;5090501;28;20039;-69
2022/03/28 01:46:44;;;;;;;22.08;8.65;;;;;;;;;;5090342;28;20052;-69
2022/03/28 01:49:13;;;;;;;23.92;8.98;;;;;;;;;;5088248;28;20043;-69
2022/03/28 01:51:41;;;;;;;21.20;7.88;;;;;;;;;;5089716;28;20139;-69
2022/03/28 01:54:10;;;;;;;29.38;9.77;;;;;;;;;;5088807;28;20075;-69
2022/03/28 01:56:40;;;;;;;23.23;8.85;;;;;;;;;;5089691;28;20079;-69
2022/03/28 01:59:08;;;;;;;20.10;8.55;;;;;;;;;;5089473;28;20054;-70
2022/03/28 02:01:37;;;;;;;23.95;7.95;;;;;;;;;;5089540;28;20047;-69
2022/03/28 02:04:06;;;;;;;19.50;8.90;;;;;;;;;;5091500;28;20039;-68
2022/03/28 02:06:34;;;;;;;19.98;7.97;;;;;;;;;;5090035;28;20135;-70
2022/03/28 02:09:02;;;;;;;22.75;8.23;;;;;;;;;;5088689;28;20079;-69
2022/03/28 02:11:31;;;;;;;21.88;8.38;;;;;;;;;;5088334;28;20044;-69
2022/03/28 02:14:00;;;;;;;20.52;8.38;;;;;;;;;;5088039;28;20135;-68
2022/03/28 02:16:29;;;;;;;24.65;8.70;;;;;;;;;;5078752;28;20067;-69
2022/03/28 02:18:58;;;;;;;23.25;8.65;;;;;;;;;;5089345;28;20052;-69
2022/03/28 02:21:26;;;;;;;17.52;7.72;;;;;;;;;;5088532;28;20487;-69
2022/03/28 02:23:55;;;;;;;25.95;8.70;;;;;;;;;;5088981;28;20124;-69
2022/03/28 02:26:23;;;;;;;16.48;7.30;;;;;;;;;;5089034;28;20131;-69
2022/03/28 02:28:51;;;;;;;16.65;7.45;;;;;;;;;;5087724;28;20091;-68
2022/03/28 02:31:21;;;;;;;17.95;7.50;;;;;;;;;;5089366;28;20080;-69
2022/03/28 02:33:49;;;;;;;18.95;8.43;;;;;;;;;;5088045;28;20086;-69
2022/03/28 02:36:17;;;;;;;21.65;7.18;;;;;;;;;;5090163;28;20075;-69
2022/03/28 02:38:46;;;;;;;19.88;8.63;;;;;;;;;;5085726;28;20071;-69
2022/03/28 02:41:14;;;;;;;19.88;7.85;;;;;;;;;;5090259;28;20126;-69
2022/03/28 02:43:42;;;;;;;21.65;7.72;;;;;;;;;;5087521;28;20135;-69
2022/03/28 02:46:10;;;;;;;22.08;7.75;;;;;;;;;;5090348;28;20075;-69
2022/03/28 02:48:40;;;;;;;17.60;7.65;;;;;;;;;;5085781;28;20380;-69
2022/03/28 02:51:08;;;;;;;18.83;7.57;;;;;;;;;;5090619;28;20131;-69
2022/03/28 02:53:37;;;;;;;21.27;8.43;;;;;;;;;;5087189;28;20083;-69
2022/03/28 02:56:08;;;;;;;21.00;7.72;;;;;;;;;;5089979;28;20107;-69
2022/03/28 02:58:36;;;;;;;22.38;8.27;;;;;;;;;;5098204;28;20123;-69
2022/03/28 03:01:07;;;;;;;16.75;7.60;;;;;;;;;;5088761;28;20517;-69
2022/03/28 03:03:36;;;;;;;18.13;7.57;;;;;;;;;;5088793;28;20048;-69
2022/03/28 03:06:09;;;;;;;21.83;8.10;;;;;;;;;;5080419;28;20044;-69
2022/03/28 03:08:37;;;;;;;17.38;8.45;;;;;;;;;;5086587;28;20170;-69
2022/03/28 03:11:09;;;;;;;22.73;8.43;;;;;;;;;;5087907;28;20163;-69
2022/03/28 03:13:37;;;;;;;17.10;7.15;;;;;;;;;;5088193;28;20558;-68
2022/03/28 03:16:08;;;;;;;21.13;8.63;;;;;;;;;;5089139;28;20131;-69
2022/03/28 03:18:37;;;;;;;19.23;8.45;;;;;;;;;;5084037;28;20056;-68
2022/03/28 03:21:09;;;;;;;18.33;7.35;;;;;;;;;;5088814;28;20078;-68
2022/03/28 03:23:38;;;;;;;19.17;8.05;;;;;;;;;;5083511;28;20464;-69
2022/03/28 03:26:09;;;;;;;27.00;8.32;;;;;;;;;;5088793;28;20072;-68
2022/03/28 03:28:37;;;;;;;21.90;7.47;;;;;;;;;;5087663;28;20673;-69
2022/03/28 03:31:08;;;;;;;25.90;8.45;;;;;;;;;;5088938;28;20082;-69
2022/03/28 03:33:37;;;;;;;18.60;7.88;;;;;;;;;;5088582;28;20163;-68
2022/03/28 03:36:09;;;;;;;18.08;7.72;;;;;;;;;;5083523;28;20131;-68
2022/03/28 03:38:38;;;;;;;17.50;7.25;;;;;;;;;;5086997;28;20055;-69
2022/03/28 03:41:09;;;;;;;21.13;7.70;;;;;;;;;;5087990;28;20123;-68
2022/03/28 03:43:37;;;;;;;20.67;7.68;;;;;;;;;;5088367;28;20123;-69
2022/03/28 03:46:08;;;;;;;25.23;7.85;;;;;;;;;;5088286;28;20066;-69
2022/03/28 03:48:37;;;;;;;19.05;8.75;;;;;;;;;;5087155;28;20079;-68
2022/03/28 03:51:10;;;;;;;19.10;8.02;;;;;;;;;;5088793;28;20044;-68
2022/03/28 03:53:38;;;;;;;17.67;6.95;;;;;;;;;;5085428;28;20127;-69
2022/03/28 03:56:06;;;;;;;20.55;7.68;;;;;;;;;;5087684;28;20530;-69
2022/03/28 03:58:35;;;;;;;21.58;7.20;;;;;;;;;;5088439;28;20080;-69
2022/03/28 04:01:08;;;;;;;20.92;7.70;;;;;;;;;;5092064;28;20414;-69
2022/03/28 04:03:37;;;;;;;18.03;7.53;;;;;;;;;;5098532;28;20336;-69
2022/03/28 04:06:10;;;;;;;18.42;7.18;;;;;;;;;;5093594;28;20135;-68
2022/03/28 04:08:39;;;;;;;21.25;7.25;;;;;;;;;;5089750;28;20044;-69
2022/03/28 04:11:07;;;;;;;13.35;6.80;;;;;;;;;;5091958;28;20532;-68
2022/03/28 04:13:37;;;;;;;21.70;8.00;;;;;;;;;;5088597;28;20094;-69
2022/03/28 04:16:08;;;;;;;17.42;7.15;;;;;;;;;;5092095;28;20151;-68
2022/03/28 04:18:36;;;;;;;15.95;6.55;;;;;;;;;;5091079;28;20056;-68
2022/03/28 04:21:09;;;;;;;14.93;6.90;;;;;;;;;;5093620;28;20127;-69
2022/03/28 04:23:37;;;;;;;17.08;7.90;;;;;;;;;;5091001;28;20051;-68
2022/03/28 04:26:08;;;;;;;19.85;7.45;;;;;;;;;;5089548;28;20456;-68
2022/03/28 04:28:37;;;;;;;20.30;7.65;;;;;;;;;;5089839;28;20743;-69
2022/03/28 04:31:08;;;;;;;17.77;7.05;;;;;;;;;;5090774;28;20207;-69
2022/03/28 04:33:36;;;;;;;15.70;6.32;;;;;;;;;;5091088;28;20040;-69
2022/03/28 04:36:12;;;;;;;16.75;6.82;;;;;;;;;;5084520;28;20132;-69
2022/03/28 04:38:41;;;;;;;16.65;7.00;;;;;;;;;;5086430;28;20050;-69
2022/03/28 04:41:10;;;;;;;20.50;8.15;;;;;;;;;;5091024;28;20135;-69
2022/03/28 04:43:38;;;;;;;24.80;7.65;;;;;;;;;;5089882;28;20119;-69
2022/03/28 04:46:06;;;;;;;16.90;7.55;;;;;;;;;;5091236;28;20127;-69
2022/03/28 04:48:35;;;;;;;17.00;6.65;;;;;;;;;;5087500;28;20059;-69
2022/03/28 04:51:08;;;;;;;23.98;7.15;;;;;;;;;;5090105;28;20087;-69
2022/03/28 04:53:36;;;;;;;15.98;7.03;;;;;;;;;;5089789;28;20040;-68
2022/03/28 04:56:09;;;;;;;25.95;7.88;;;;;;;;;;5088718;28;20127;-69
2022/03/28 04:58:37;;;;;;;25.10;7.18;;;;;;;;;;5090641;28;20567;-69
2022/03/28 05:01:08;;;;;;;19.70;7.57;;;;;;;;;;5089812;28;20051;-68
2022/03/28 05:03:37;;;;;;;15.70;6.60;;;;;;;;;;5086387;28;20467;-69
2022/03/28 05:06:09;;;;;;;15.45;6.07;;;;;;;;;;5088159;28;20126;-69
2022/03/28 05:08:38;;;;;;;15.07;6.20;;;;;;;;;;5086605;28;20048;-68
2022/03/28 05:11:12;;;;;;;15.43;7.20;;;;;;;;;;5090899;28;20044;-69
2022/03/28 05:13:40;;;;;;;17.27;7.00;;;;;;;;;;5080815;28;20048;-69
2022/03/28 05:16:08;;;;;;;21.02;7.57;;;;;;;;;;5082570;28;20130;-69
2022/03/28 05:18:37;;;;;;;16.10;7.13;;;;;;;;;;5090820;28;20403;-69
2022/03/28 05:21:08;;;;;;;20.67;7.97;;;;;;;;;;5088460;28;20058;-68
2022/03/28 05:23:36;;;;;;;15.82;7.47;;;;;;;;;;5084978;28;20487;-69
2022/03/28 05:26:07;;;;;;;15.50;6.53;;;;;;;;;;5084110;28;20135;-69
2022/03/28 05:28:37;;;;;;;20.08;7.43;;;;;;;;;;5085522;28;20151;-68
2022/03/28 05:31:09;;;;;;;15.50;6.68;;;;;;;;;;5083004;28;20052;-69
2022/03/28 05:33:37;;;;;;;17.30;6.80;;;;;;;;;;5085710;28;20119;-69
2022/03/28 05:36:09;;;;;;;21.60;7.10;;;;;;;;;;5085252;28;20471;-69
2022/03/28 05:38:37;;;;;;;13.70;6.15;;;;;;;;;;5085960;28;20123;-69
2022/03/28 05:41:09;;;;;;;22.17;6.78;;;;;;;;;;5086782;28;20578;-69
2022/03/28 05:43:39;;;;;;;20.63;6.63;;;;;;;;;;5086363;28;20044;-69
2022/03/28 05:46:09;;;;;;;23.05;7.38;;;;;;;;;;5085748;28;20158;-69
2022/03/28 05:48:37;;;;;;;17.08;6.90;;;;;;;;;;5086430;28;20071;-69
2022/03/28 05:51:08;;;;;;;17.35;7.07;;;;;;;;;;5085923;28;20139;-68
2022/03/28 05:53:36;;;;;;;16.83;7.15;;;;;;;;;;5087960;28;20441;-69
2022/03/28 05:56:08;;;;;;;13.85;6.25;;;;;;;;;;5083717;28;20083;-69
2022/03/28 05:58:36;;;;;;;22.25;7.53;;;;;;;;;;5083841;28;20563;-69
2022/03/28 06:01:09;;;;;;;18.73;6.85;;;;;;;;;;5087478;28;20044;-68
2022/03/28 06:03:38;;;;;;;17.73;7.07;;;;;;;;;;5087427;28;20639;-68
2022/03/28 06:06:09;;;;;;;18.95;7.40;;;;;;;;;;5085161;28;20058;-69
2022/03/28 06:08:38;;;;;;;18.02;7.10;;;;;;;;;;5086006;28;20055;-69
2022/03/28 06:11:10;;;;;;;17.05;7.60;;;;;;;;;;5086510;28;20136;-69
2022/03/28 06:13:38;;;;;;;17.70;6.57;;;;;;;;;;5077645;28;20139;-69
2022/03/28 06:16:11;;;;;;;15.95;6.38;;;;;;;;;;5082664;28;20048;-69
2022/03/28 06:18:43;;;;;;;18.70;7.45;;;;;;;;;;5087555;28;20075;-69
2022/03/28 06:21:11;;;;;;;16.90;7.25;;;;;;;;;;5085156;28;20086;-69
2022/03/28 06:23:39;;;;;;;15.95;6.72;;;;;;;;;;5086057;28;20135;-70
2022/03/28 06:26:08;;;;;;;20.35;6.97;;;;;;;;;;5084603;28;20752;-68
2022/03/28 06:28:36;;;;;;;21.35;6.85;;;;;;;;;;5086949;28;20115;-68
2022/03/28 06:31:08;;;;;;;17.58;6.95;;;;;;;;;;5072084;28;20052;-68
2022/03/28 06:33:38;;;;;;;16.92;6.80;;;;;;;;;;5088087;28;20128;-69
2022/03/28 06:36:10;;;;;;;17.50;8.05;;;;;;;;;;5080536;28;20044;-68
2022/03/28 06:38:38;;;;;;;25.48;9.25;;;;;;;;;;5092500;28;20108;-69
2022/03/28 06:41:10;;;;;;;21.80;8.80;;;;;;;;;;5089346;28;20121;-69
2022/03/28 06:43:38;;;;;;;25.52;8.30;;;;;;;;;;5084556;28;20080;-69
2022/03/28 06:46:06;;;;;;;19.52;8.65;;;;;;;;;;5080733;28;20541;-69
2022/03/28 06:48:35;;;;;;;28.42;8.88;;;;;;;;;;5083458;28;20447;-69
2022/03/28 06:51:07;;;;;;;32.40;9.82;;;;;;;;;;5078948;28;20081;-69
2022/03/28 06:53:36;;;;;;;22.00;9.43;;;;;;;;;;5090367;28;20411;-69
2022/03/28 06:56:12;;;;;;;24.88;9.90;;;;;;;;;;5090359;28;20067;-69
2022/03/28 06:58:40;;;;;;;24.88;9.75;;;;;;;;;;5089468;28;20372;-69
2022/03/28 07:01:10;;;;;;;31.30;9.77;;;;;;;;;;5089812;28;20047;-69
2022/03/28 07:03:38;;;;;;;28.10;9.70;;;;;;;;;;5085145;28;20052;-69
2022/03/28 07:06:08;;;;;;;29.98;10.02;;;;;;;;;;5076634;28;20047;-69
2022/03/28 07:08:37;;;;;;;26.70;9.55;;;;;;;;;;5087910;28;20090;-69
2022/03/28 07:11:09;;;;;;;22.42;9.55;;;;;;;;;;5091650;28;20529;-69
2022/03/28 07:13:38;;;;;;;25.35;9.70;;;;;;;;;;5089449;28;20094;-69
2022/03/28 07:16:09;;;;;;;23.80;9.68;;;;;;;;;;5087609;28;20048;-69
2022/03/28 07:18:37;;;;;;;21.67;9.73;;;;;;;;;;5087494;28;20079;-69
2022/03/28 07:21:10;;;;;;;21.85;9.70;;;;;;;;;;5084042;28;20079;-69
2022/03/28 07:23:39;;;;;;;27.33;9.85;;;;;;;;;;5081977;28;20048;-69
2022/03/28 07:26:08;;;;;;;25.58;9.65;;;;;;;;;;5089049;28;20080;-69
2022/03/28 07:28:39;;;;;;;22.90;10.02;;;;;;;;;;5087986;28;20501;-69
2022/03/28 07:31:08;;;;;;;23.77;9.52;;;;;;;;;;5088887;28;20124;-69
2022/03/28 07:33:37;;;;;;;23.05;10.30;;;;;;;;;;5093341;28;20049;-69
2022/03/28 07:36:09;;;;;;;29.40;10.88;;;;;;;;;;5089895;28;20086;-69
2022/03/28 07:38:39;;;;;;;23.65;9.57;;;;;;;;;;5088831;28;20548;-69
2022/03/28 07:41:07;;;;;;;27.65;8.50;;;;;;;;;;5093949;28;20051;-69
2022/03/28 07:43:35;;;;;;;20.75;8.25;;;;;;;;;;5092939;28;20082;-69
2022/03/28 07:46:07;;;;;;;19.80;8.63;;;;;;;;;;5078363;28;20131;-70
2022/03/28 07:48:35;;;;;;;24.90;10.68;;;;;;;;;;5080442;28;20506;-69
2022/03/28 07:51:09;;;;;;;17.77;8.05;;;;;;;;;;5086684;28;20378;-69
2022/03/28 07:53:39;;;;;;;21.38;8.63;;;;;;;;;;5090853;28;20044;-70
2022/03/28 07:56:08;;;;;;;21.88;8.43;;;;;;;;;;5092558;28;20513;-69
2022/03/28 07:58:37;;;;;;;23.00;8.70;;;;;;;;;;5091991;28;20443;-69
2022/03/28 08:01:08;;;;;;;20.95;9.18;;;;;;;;;;5087838;28;20082;-69
2022/03/28 08:03:37;;;;;;;26.13;9.30;;;;;;;;;;5091189;28;20044;-69
2022/03/28 08:06:10;;;;;;;20.45;8.25;;;;;;;;;;5093369;28;20101;-69
2022/03/28 08:08:40;;;;;;;20.75;8.80;;;;;;;;;;5089737;28;20059;-69
2022/03/28 08:11:09;;;;;;;20.45;9.27;;;;;;;;;;5091557;28;20214;-70
2022/03/28 08:13:38;;;;;;;22.27;8.15;;;;;;;;;;5089806;28;20093;-69
2022/03/28 08:16:09;;;;;;;20.02;8.88;;;;;;;;;;5079146;28;20036;-69
2022/03/28 08:18:39;;;;;;;21.13;9.43;;;;;;;;;;5088134;28;20063;-70
2022/03/28 08:21:08;;;;;;;18.60;8.68;;;;;;;;;;5090850;28;20070;-69
2022/03/28 08:23:37;;;;;;;16.85;8.63;;;;;;;;;;5091712;28;20059;-69
2022/03/28 08:26:10;;;;;;;21.25;8.57;;;;;;;;;;5089213;28;20126;-70
2022/03/28 08:28:39;;;;;;;21.45;9.68;;;;;;;;;;5088088;28;20105;-70
2022/03/28 08:31:07;;;;;;;22.42;9.90;;;;;;;;;;5089665;28;20048;-70
2022/03/28 08:33:36;;;;;;;22.52;8.18;;;;;;;;;;5085059;28;20055;-70
2022/03/28 08:36:09;;;;;;;20.08;8.32;;;;;;;;;;5089455;28;20549;-70
2022/03/28 08:38:39;;;;;;;16.25;8.52;;;;;;;;;;5090516;28;20356;-69
2022/03/28 08:41:12;;;;;;;21.70;8.95;;;;;;;;;;5091130;28;20044;-70
2022/03/28 08:43:44;;;;;;;19.73;8.73;;;;;;;;;;5088356;28;20138;-70
2022/03/28 08:46:13;;;;;;;19.23;9.18;;;;;;;;;;5085689;28;20442;-70
2022/03/28 08:48:41;;;;;;;17.73;8.63;;;;;;;;;;5089385;28;20499;-70
2022/03/28 08:51:10;;;;;;;26.95;8.60;;;;;;;;;;5090635;28;20040;-69
2022/03/28 08:53:38;;;;;;;22.60;8.55;;;;;;;;;;5091362;28;20052;-70
2022/03/28 08:56:10;;;;;;;23.05;8.88;;;;;;;;;;5090776;28;20056;-70
2022/03/28 08:59:00;;;;;;;20.65;8.27;;;;;;;;;;5089046;28;20048;-70
2022/03/28 09:01:29;;;;;;;21.98;8.35;;;;;;;;;;5091773;28;20044;-70
2022/03/28 09:04:07;;;;;;;19.58;8.55;;;;;;;;;;5086241;28;20105;-70
2022/03/28 09:06:37;;;;;;;22.50;9.02;;;;;;;;;;5092174;28;20058;-69
2022/03/28 09:09:13;;;;;;;18.67;8.05;;;;;;;;;;5087998;28;20056;-70
2022/03/28 09:11:43;;;;;;;18.90;7.88;;;;;;;;;;5090767;28;20046;-70
2022/03/28 09:14:14;;;;;;;22.52;8.68;;;;;;;;;;5089730;28;20040;-70
2022/03/28 09:16:43;;;;;;;20.42;9.88;;;;;;;;;;5089870;28;20583;-71
2022/03/28 09:19:14;;;;;;;18.88;8.23;;;;;;;;;;5089594;28;20051;-70
2022/03/28 09:21:51;;;;;;;17.77;8.20;;;;;;;;;;5084104;28;20072;-70
2022/03/28 09:24:20;;;;;;;18.27;8.20;;;;;;;;;;5088762;28;20032;-70
2022/03/28 09:26:49;;;;;;;18.23;8.98;;;;;;;;;;5084579;28;20105;-70
2022/03/28 09:29:19;;;;;;;23.33;9.10;;;;;;;;;;5089635;28;20056;-70
2022/03/28 09:31:47;;;;;;;20.13;8.45;;;;;;;;;;5089352;28;20076;-71
2022/03/28 09:34:17;;;;;;;17.83;7.80;;;;;;;;;;5087066;28;20048;-70
2022/03/28 09:36:52;;;;;;;20.58;9.18;;;;;;;;;;5081725;28;20084;-70
2022/03/28 09:39:20;;;;;;;;;;;;;;;;;;5089876;28;20039;-70
2022/03/28 09:42:00;;;;;;;21.15;8.55;;;;;;;;;;5083034;28;19920;-70
2022/03/28 09:44:37;;;;;;;24.27;8.95;;;;;;;;;;5091684;28;20089;-70
2022/03/28 09:47:08;;;;;;;22.10;8.48;;;;;;;;;;5078784;28;20055;-71
2022/03/28 09:49:36;;;;;;;24.08;9.02;;;;;;;;;;5089518;28;20136;-71
2022/03/28 09:52:06;;;;;;;19.48;8.07;;;;;;;;;;5086913;28;20076;-71
2022/03/28 09:54:45;;;;;;;30.52;10.23;;;;;;;;;;5082018;28;20067;-71
2022/03/28 09:57:14;;;;;;;27.65;9.48;;;;;;;;;;5091934;28;20113;-71
2022/03/28 09:59:44;;;;;;;21.17;9.10;;;;;;;;;;5088346;28;20055;-71
2022/03/28 10:02:19;;;;;;;23.58;9.75;;;;;;;;;;5091095;28;20469;-70
2022/03/28 10:04:50;;;;;;;22.13;9.40;;;;;;;;;;5090070;28;20044;-70
2022/03/28 10:07:19;;;;;;;21.00;9.35;;;;;;;;;;5089448;28;20127;-71
2022/03/28 10:09:49;;;;;;;18.63;9.38;;;;;;;;;;5087742;28;20036;-71
2022/03/28 10:12:19;;;;;;;24.55;10.00;;;;;;;;;;5084417;28;20113;-71
2022/03/28 10:14:50;;;;;;;17.70;9.20;;;;;;;;;;5091569;28;20073;-71
2022/03/28 10:17:19;;;;;;;20.40;8.77;;;;;;;;;;5091790;28;20074;-71
2022/03/28 10:19:48;;;;;;;20.45;9.80;;;;;;;;;;5088002;28;20571;-71
2022/03/28 10:22:24;;;;;;;23.83;10.52;;;;;;;;;;5091198;28;20048;-71
2022/03/28 10:24:52;;;;;;;21.85;9.38;;;;;;;;;;5089322;28;20052;-71
2022/03/28 10:27:21;;;;;;;23.85;9.25;;;;;;;;;;5090355;28;20076;-71
2022/03/28 10:29:52;;;;;;;22.92;9.52;;;;;;;;;;5085395;28;20090;-71
2022/03/28 10:32:21;;;;;;;21.15;10.05;;;;;;;;;;5088509;28;20086;-71
2022/03/28 10:34:52;;;;;;;21.52;9.95;;;;;;;;;;5075091;28;20074;-71
2022/03/28 10:37:28;;;;;;;23.08;10.25;;;;;;;;;;5087910;28;20479;-71
2022/03/28 10:40:27;;;;;;;23.85;10.23;;;;;;;;;;5089305;28;20519;-71
2022/03/28 10:43:02;;;;;;;22.08;10.07;;;;;;;;;;5004987;28;20088;-71
2022/03/28 10:45:30;;;;;;;;;;;;;;;;;;5074339;28;20040;-71
2022/03/28 10:48:00;;;;;;;22.38;10.45;;;;;;;;;;5090012;28;20026;-71
2022/03/28 10:50:30;;;;;;;19.40;9.77;;;;;;;;;;5089165;28;20071;-70
2022/03/28 10:53:08;;;;;;;18.10;9.38;;;;;;;;;;5083096;28;20131;-71
2022/03/28 10:55:38;;;;;;;23.95;10.52;;;;;;;;;;5083716;28;20131;-72
2022/03/28 10:58:12;;;;;;;19.77;9.63;;;;;;;;;;5084884;28;20048;-70
2022/03/28 11:00:40;;;;;;;21.40;10.40;;;;;;;;;;5083548;28;20048;-70
2022/03/28 11:03:10;;;;;;;20.08;10.02;;;;;;;;;;5079379;28;20054;-71
2022/03/28 11:05:54;;;;;;;22.75;10.38;;;;;;;;;;5089086;28;20054;-70
2022/03/28 11:08:32;;;;;;;26.15;9.73;;;;;;;;;;5087826;28;20089;-71
2022/03/28 11:11:22;;;;;;;19.70;9.52;;;;;;;;;;5088584;28;20116;-72
2022/03/28 11:13:58;;;;;;;19.70;9.35;;;;;;;;;;5085143;28;20055;-71
2022/03/28 11:16:43;;;;;;;21.20;9.35;;;;;;;;;;5089047;28;20143;-70
2022/03/28 11:19:30;;;;;;;22.15;10.27;;;;;;;;;;5083573;28;20044;-70
2022/03/28 11:22:02;;;;;;;19.38;10.05;;;;;;;;;;5089515;28;20087;-70
2022/03/28 11:24:47;;;;;;;21.52;10.05;;;;;;;;;;5088473;28;20052;-70
2022/03/28 11:27:17;;;;;;;22.58;10.32;;;;;;;;;;5088779;28;20084;-69
2022/03/28 11:29:46;;;;;;;22.65;9.85;;;;;;;;;;5088277;28;20049;-70
2022/03/28 11:32:15;;;;;;;21.35;10.25;;;;;;;;;;5087922;28;20403;-70
2022/03/28 11:34:50;;;;;;;22.15;10.93;;;;;;;;;;5081355;28;20079;-70
2022/03/28 11:37:19;;;;;;;19.45;9.55;;;;;;;;;;5086637;28;20040;-69
2022/03/28 11:39:55;;;;;;;24.88;10.90;;;;;;;;;;5089020;28;20063;-69
2022/03/28 11:42:24;;;;;;;21.13;11.35;;;;;;;;;;5086639;28;20407;-70
2022/03/28 11:44:54;;;;;;;21.45;10.40;;;;;;;;;;5088002;28;20043;-69
2022/03/28 11:47:22;;;;;;;20.98;10.02;;;;;;;;;;5090071;28;20121;-69
2022/03/28 11:49:57;;;;;;;20.83;9.13;;;;;;;;;;5088296;28;20137;-69
2022/03/28 11:52:26;;;;;;;23.25;9.48;;;;;;;;;;5076117;28;20055;-70
2022/03/28 11:54:55;;;;;;;22.50;9.90;;;;;;;;;;5084410;28;20286;-69
2022/03/28 12:00:15;;;;;;;22.05;10.63;;;;;;;;;;5078632;28;20070;-70
2022/03/28 12:02:50;;;;;;;21.05;10.63;;;;;;;;;;5087229;28;20126;-70
2022/03/28 12:05:33;;;;;;;20.55;9.65;;;;;;;;;;5078801;28;20182;-69
2022/03/28 12:08:08;;;;;;;18.80;10.05;;;;;;;;;;5084622;28;20048;-69
2022/03/28 12:10:37;;;;;;;17.83;8.70;;;;;;;;;;5082409;28;20053;-69
2022/03/28 12:13:07;;;;;;;18.90;9.27;;;;;;;;;;5082914;28;20396;-69
2022/03/28 12:15:36;;;;;;;18.73;9.45;;;;;;;;;;5084230;28;20825;-69
2022/03/28 12:18:06;;;;;;;21.40;9.52;;;;;;;;;;5083379;28;20548;-69
2022/03/28 12:20:40;;;;;;;17.27;9.05;;;;;;;;;;5089283;28;20058;-69
2022/03/28 12:23:09;;;;;;;21.77;9.65;;;;;;;;;;5086292;28;20079;-69
2022/03/28 12:25:39;;;;;;;17.35;9.05;;;;;;;;;;5088881;28;20043;-69
2022/03/28 12:28:09;;;;;;;19.67;9.45;;;;;;;;;;5085252;28;20497;-70
2022/03/28 12:30:40;;;;;;;18.45;8.90;;;;;;;;;;5085845;28;20051;-70
2022/03/28 12:33:13;;;;;;;15.43;7.80;;;;;;;;;;5089983;28;20083;-70
2022/03/28 12:35:45;;;;;;;16.55;8.50;;;;;;;;;;5088306;28;20109;-69
2022/03/28 12:38:16;;;;;;;18.50;8.77;;;;;;;;;;5085425;28;20151;-70
2022/03/28 12:40:46;;;;;;;22.27;9.93;;;;;;;;;;5082172;28;20036;-69
2022/03/28 12:43:16;;;;;;;16.13;8.48;;;;;;;;;;5086776;28;20576;-69
2022/03/28 12:45:45;;;;;;;18.10;8.77;;;;;;;;;;5085677;28;20044;-69
2022/03/28 12:48:13;;;;;;;17.40;7.97;;;;;;;;;;5084914;28;20060;-69
2022/03/28 12:50:56;;;;;;;17.95;8.27;;;;;;;;;;5091860;28;20471;-70
2022/03/28 12:53:25;;;;;;;18.02;7.97;;;;;;;;;;5084826;28;20499;-70
2022/03/28 12:55:54;;;;;;;17.38;7.78;;;;;;;;;;5084040;28;20048;-70
2022/03/28 12:58:33;;;;;;;15.13;7.95;;;;;;;;;;5086459;28;20109;-70
2022/03/28 13:01:10;;;;;;;16.08;7.72;;;;;;;;;;5082180;28;20139;-69
2022/03/28 13:03:39;;;;;;;16.05;7.78;;;;;;;;;;5095817;28;20142;-69
2022/03/28 13:06:13;;;;;;;16.48;7.43;;;;;;;;;;5089558;28;20145;-68
2022/03/28 13:08:43;;;;;;;19.85;8.02;;;;;;;;;;5081981;28;20428;-69
2022/03/28 13:11:15;;;;;;;15.68;8.73;;;;;;;;;;5082691;28;20507;-69
2022/03/28 13:13:45;;;;;;;17.92;8.05;;;;;;;;;;5084095;28;20137;-71
2022/03/28 13:16:21;;;;;;;17.85;8.45;;;;;;;;;;5089609;28;20093;-69
2022/03/28 13:19:00;;;;;;;16.98;8.32;;;;;;;;;;5077171;28;21555;-69
2022/03/28 13:21:31;;;;;;;16.23;8.43;;;;;;;;;;5080985;28;20084;-69
2022/03/28 13:24:07;;;;;;;17.52;7.85;;;;;;;;;;5071570;28;21446;-71
2022/03/28 13:26:42;;;;;;;18.40;8.35;;;;;;;;;;5080869;28;20043;-69
2022/03/28 13:29:22;;;;;;;14.50;7.15;;;;;;;;;;5085654;28;20094;-69
2022/03/28 13:31:50;;;;;;;20.65;9.02;;;;;;;;;;5089104;28;20044;-69
2022/03/28 13:34:19;;;;;;;15.80;7.63;;;;;;;;;;5087505;28;20550;-69
2022/03/28 13:36:49;;;;;;;18.08;8.07;;;;;;;;;;5082674;28;20046;-68
2022/03/28 13:39:17;;;;;;;17.38;8.32;;;;;;;;;;5087083;28;20066;-69
2022/03/28 13:41:46;;;;;;;15.20;8.18;;;;;;;;;;5090497;28;20154;-68
2022/03/28 13:44:15;;;;;;;19.50;8.90;;;;;;;;;;5078994;28;20419;-69
2022/03/28 13:46:43;;;;;;;17.58;8.50;;;;;;;;;;5091177;28;20036;-69
2022/03/28 13:49:11;;;;;;;20.15;8.27;;;;;;;;;;5087973;28;20142;-68
2022/03/28 13:51:46;;;;;;;17.42;8.65;;;;;;;;;;5088349;28;20298;-69
2022/03/28 13:54:16;;;;;;;22.52;8.95;;;;;;;;;;5073833;28;20095;-69
2022/03/28 13:56:45;;;;;;;15.90;8.10;;;;;;;;;;5069589;28;20413;-69
2022/03/28 13:59:13;;;;;;;17.80;8.35;;;;;;;;;;5083499;28;20043;-70
2022/03/28 14:01:42;;;;;;;17.10;8.48;;;;;;;;;;5081450;28;20082;-68
2022/03/28 14:04:11;;;;;;;19.88;8.77;;;;;;;;;;5087230;28;20036;-69
2022/03/28 14:06:40;;;;;;;18.85;8.32;;;;;;;;;;5086771;28;20044;-69
2022/03/28 14:09:09;;;;;;;16.50;8.32;;;;;;;;;;5083146;28;20053;-68
2022/03/28 14:11:38;;;;;;;16.40;8.07;;;;;;;;;;5082506;28;20495;-68
2022/03/28 14:14:07;;;;;;;19.40;8.85;;;;;;;;;;5085127;28;20062;-68
2022/03/28 14:16:38;;;;;;;21.63;9.35;;;;;;;;;;5078296;28;20484;-69
2022/03/28 14:19:07;;;;;;;17.33;7.93;;;;;;;;;;5092690;28;20048;-68
2022/03/28 14:21:36;;;;;;;18.92;8.63;;;;;;;;;;5085466;28;20048;-68
2022/03/28 14:24:06;;;;;;;17.60;8.65;;;;;;;;;;5091280;28;20090;-68
2022/03/28 14:26:35;;;;;;;15.52;8.02;;;;;;;;;;5075028;28;20083;-68
2022/03/28 14:29:05;;;;;;;16.70;8.43;;;;;;;;;;5081429;28;20058;-68
2022/03/28 14:31:33;;;;;;;15.57;7.80;;;;;;;;;;5088030;28;20040;-68
2022/03/28 14:34:02;;;;;;;17.10;7.85;;;;;;;;;;5084049;28;20060;-68
2022/03/28 14:36:30;;;;;;;15.10;7.72;;;;;;;;;;5086400;28;20040;-69
2022/03/28 14:38:59;;;;;;;17.77;8.63;;;;;;;;;;5090144;28;20113;-68
2022/03/28 14:41:27;;;;;;;16.30;8.50;;;;;;;;;;5085155;28;20094;-68
2022/03/28 14:43:55;;;;;;;16.92;7.72;;;;;;;;;;5090647;28;20118;-68
2022/03/28 14:49:20;;;;;;;16.15;8.45;;;;;;;;;;5082931;28;20043;-69
2022/03/28 14:51:48;;;;;;;18.10;7.97;;;;;;;;;;5085371;28;20040;-70
2022/03/28 14:54:17;;;;;;;19.02;8.18;;;;;;;;;;5087839;28;20359;-68